logo
App data

Spud's Quest

Spud's Quest is an adventure game for Windows that draws its inspiration from the classic games of yesteryear, most notably the Dizzy, Zelda, and Metroid series. Take on the role of Spud and his friend Prince Charming on a journey to uncover four ancient elemental essences that have the power to remove a curse upon the royal family.
Store | Hub | SteamDB | Site
Developer: Mouldy Toof Studios Publisher: Clickteam
Genre: Action, Adventure, Indie
Languages: English
Tags: Adventure (27), Indie (24), Action (23), Platformer (7)
Category: Single-player
Release date: Jul 31, 2014
Price: $1.59 80%
Owners: 0 .. 20,000
Followers: 154
Playtime in the last 2 weeks: 05:32 (average) 05:32 (median)
Playtime total: 10:11 (average) 14:56 (median)

Steam Spy is still in beta, so expect major bugs.

Owners data:

Access restricted.

This feature is only available to users with special access rights. Sorry.

If you want to proceed, you need to register or log in first and then back Steam Spy on Patreon. Look for Indie or Pro pledge.

Don't forget to use the same email as on Steam Spy!

Audience in 2 weeks:

Access restricted.

This feature is only available to users with special access rights. Sorry.

If you want to proceed, you need to register or log in first and then back Steam Spy on Patreon. Look for Indie or Pro pledge.

Don't forget to use the same email as on Steam Spy!

Peak daily concurrent players:

CCU data courtesy of SteamDB. Used with permission.

Hourly concurrent players:

Daily Twitch stats:

Hourly Twitch stats:

YouTube:

The views data is based on top 50 videos uploaded last week. Actual number of views might be more than the number shown.

The displayed number of videos uploaded yesterday is limited to 50, so if there were more videos uploaded, the number will still show 50.

If the game has commonly used word as its name (like "FEAR" or "Volume") its number of Youtube views might be wrong.

Games similar to this one:

# Game Release date
Price
Score rank
(Userscore / Metascore)
Owners
Players
Playtime (Median)
1 Star Trek: Judgment Rites May 8, 2015 $9.99N/A (N/A)0 .. 20,0000%00:00 (00:00)
2 Aaero Apr 11, 2017 $14.9990% (94%)0 .. 20,0000%00:00 (00:00)
3 Star Trek : 25th Anniversary May 7, 2015 $9.9990% (94%)0 .. 20,0000%00:00 (00:00)
4 Adventure in the Tower of Flight Dec 23, 2015 $4.9987% (93%)0 .. 20,0000%00:00 (00:00)
5 Knightmare Tower Jun 16, 2014 $0.9983% (92%)0 .. 20,0000%00:00 (00:00)
6 Spark the Electric Jester Apr 10, 2017 $14.9980% (91%)0 .. 20,0000%00:00 (00:00)
7 Fractured Soul Feb 5, 2015 $3.99N/A (N/A)0 .. 20,0000%00:00 (00:00)
8 Hyphen Feb 12, 2015 $3.99N/A (N/A)0 .. 20,0000%00:00 (00:00)
9 Conga Master Sep 14, 2016 $2.49N/A (N/A)0 .. 20,0000%00:00 (00:00)
10 Hero of Many Sep 15, 2014 $6.9976% (90%)20,000 .. 50,0000%00:00 (00:00)
11 THE WALL 墙 Jun 8, 2017 $1.9973% (89%)0 .. 20,0000%00:00 (00:00)
12 Smashing The Battle VR Jun 15, 2017 $10.99N/A (N/A)0 .. 20,0000%00:00 (00:00)
13 XIIZEAL Jun 5, 2015 $11.99N/A (N/A)0 .. 20,0000%00:00 (00:00)
14 Neighborhorde Jun 5, 2017 $2.49N/A (N/A)0 .. 20,0000%00:00 (00:00)
15 Knight Squad Nov 16, 2015 $14.9965% (86%)0 .. 20,0000.75%00:01 (00:00)
16 Asura: Vengeance Expansion Apr 13, 2017 $4.9965% (86%)0 .. 20,0000%00:00 (00:00)
17 Ittle Dew 2 Nov 15, 2016 $15.9965% (86%)0 .. 20,0000%00:00 (00:00)
18 Azure Striker Gunvolt Aug 28, 2015 $4.4962% (85%)20,000 .. 50,0003.85%00:21 (00:07)
19 Vintage Year Jan 2, 2015 $2.9962% (85%)20,000 .. 50,0000%00:00 (00:00)
20 Super Rad Raygun Nov 15, 2016 $1.99N/A (N/A/64%)0 .. 20,0000%00:00 (00:00)
21 Disney's Chicken Little Oct 20, 2005 $2.9960% (84%)0 .. 20,0000%00:00 (00:00)
22 Nongünz May 19, 2017 $6.9960% (84%)100,000 .. 200,0000.43%04:32 (01:30)
23 Isbarah Feb 25, 2015 $13.99N/A (N/A)20,000 .. 50,0000%00:00 (00:00)
24 Fighties Jul 13, 2015 $4.9957% (83%)0 .. 20,0000%00:00 (00:00)
25 After The End: The Harvest Jun 2, 2017 $4.9955% (82%)20,000 .. 50,0000%00:00 (00:00)
26 LocoCycle Feb 14, 2014 $2.4951% (80%)0 .. 20,0000%00:00 (00:00)
27 Airport Madness: World Edition May 28, 2015 $9.9951% (80%)20,000 .. 50,0000%00:00 (00:00)
28 Klang Sep 22, 2016 $3.7448% (79%/71%)0 .. 20,0000%00:00 (00:00)
29 Blue Effect VR Feb 8, 2017 $7.4948% (79%)0 .. 20,0000%00:00 (00:00)
30 Age of Barbarian Extended Cut Jun 3, 2016 $9.7446% (78%)0 .. 20,0000%00:00 (00:00)
31 IrreVRsible Feb 17, 2017 $0.49N/A (N/A)0 .. 20,0000%00:00 (00:00)
32 Not Dying Today Jan 13, 2017 $0.9946% (78%)0 .. 20,0002.04%00:15 (00:05)
33 Starchaser: Priestess of the Night Sky Jul 24, 2015 $3.29N/A (N/A)0 .. 20,0000%00:00 (00:00)
34 Left Alone Apr 28, 2016 $3.4945% (77%)20,000 .. 50,00014.29%01:30 (00:30)
35 Dyna Bomb May 13, 2016 $2.49N/A (N/A)0 .. 20,0000%00:00 (00:00)
36 Zero Reflex : Black Eye Edition Nov 4, 2015 $0.9941% (75%)20,000 .. 50,0000.74%00:30 (00:10)
37 Planet of Mubu Apr 1, 2017 $0.59N/A (N/A)20,000 .. 50,0000%00:00 (00:00)
38 BoxesWithGuns Dec 14, 2014 $1.9935% (72%)20,000 .. 50,0000%00:00 (00:00)
39 Aeon May 22, 2017 $19.9935% (72%)0 .. 20,0000%00:00 (00:00)
40 ABRACA - Imagic Games Mar 31, 2016 $14.99N/A (N/A)0 .. 20,0000%00:00 (00:00)
41 The Girl and the Robot Aug 17, 2016 $5.99N/A (N/A)0 .. 20,0000%00:00 (00:00)
42 Tank Brawl Apr 20, 2016 $2.99N/A (N/A)0 .. 20,0000%00:00 (00:00)
43 SAMURAI WARRIORS: Spirit of Sanada May 23, 2017 $49.9932% (70%)0 .. 20,0000%00:00 (00:00)
44 Toxic Bunny HD Jul 18, 2014 $5.99N/A (N/A)0 .. 20,0000%00:00 (00:00)
45 Pixel-Warfare: Pro Sep 20, 2016 $0.9929% (68%)20,000 .. 50,0000%00:00 (00:00)
46 Assault Suit Leynos Aug 30, 2016 $6.7929% (68%)0 .. 20,0000%00:00 (00:00)
47 Demon Peak Jul 7, 2017 $4.9926% (66%)0 .. 20,0000%00:00 (00:00)
48 Dystopy Feb 28, 2017 FreeN/A (N/A)0 .. 20,0000%00:00 (00:00)
49 Phantaruk Aug 16, 2016 $1.4926% (66%/53%)20,000 .. 50,0000%00:00 (00:00)
50 Demon's Crystals Apr 21, 2016 $2.24N/A (N/A)0 .. 20,0000%00:00 (00:00)
51 Bombshell Jan 29, 2016 $34.9922% (62%)0 .. 20,0000%00:00 (00:00)
52 Alpha Zylon Dec 19, 2007 $0.4922% (62%)20,000 .. 50,0000%00:00 (00:00)
53 Disney Alice in Wonderland Mar 2, 2010 $5.9920% (61%/63%)0 .. 20,0000%00:00 (00:00)
54 Fowl Space Mar 21, 2012 $4.9919% (60%)20,000 .. 50,0000%00:00 (00:00)
55 Shadowcrypt Jul 7, 2014 $2.4918% (59%)0 .. 20,0000%00:00 (00:00)
56 The Curse of Nordic Cove Apr 23, 2015 $0.99N/A (N/A)0 .. 20,0000%00:00 (00:00)
57 Disney Tangled Nov 19, 2010 $5.99N/A (N/A)0 .. 20,0000%00:00 (00:00)
58 Disney•Pixar Cars 2: The Video Game Jun 21, 2011 $5.9913% (52%)0 .. 20,0000%00:00 (00:00)
59 Plancon: Space Conflict Aug 8, 2016 $0.6911% (50%)20,000 .. 50,0000%00:00 (00:00)
60 Scooby Doo! & Looney Tunes Cartoon Universe: Adventure Jul 16, 2014 $19.99N/A (N/A)0 .. 20,0000%00:00 (00:00)
61 #KILLALLZOMBIES Aug 10, 2016 $0.49N/A (N/A)20,000 .. 50,0000%00:00 (00:00)
62 Blasting Agent: Ultimate Edition Aug 17, 2016 $2.99N/A (N/A)0 .. 20,0000%00:00 (00:00)
63 Lost Sea Jul 5, 2016 $1.499% (46%)0 .. 20,0000%00:00 (00:00)
64 Infinium Strike Jul 14, 2016 $9.998% (45%)0 .. 20,0000%00:00 (00:00)
65 Damage Inc. Pacific Squadron WWII Aug 28, 2012 $39.99N/A (N/A)0 .. 20,0000%00:00 (00:00)
66 Red Goddess: Inner World Sep 1, 2015 $9.995% (37%/53%)0 .. 20,0000%00:00 (00:00)
67 Kick-Ass 2 Aug 15, 2014 $4.995% (36%)0 .. 20,0000%00:00 (00:00)
68 Disney Fairies: Tinker Bell's Adventure Oct 6, 2014 $5.99N/A (N/A)0 .. 20,0000%00:00 (00:00)
69 Masterspace Jun 15, 2015 $7.993% (27%)0 .. 20,0000%00:00 (00:00)
70 Monster Challenge Circus May 15, 2014 $0.74N/A (N/A)0 .. 20,0000%00:00 (00:00)
71 Deer Hunt Legends Jan 7, 2013 $1.69N/A (N/A)0 .. 20,0000%00:00 (00:00)

Owners of this game also own:

Access restricted.

This feature is only available to users with special access rights. Sorry.

If you want to proceed, you need to register or log in first and then back Steam Spy on Patreon. Look for Indie or Pro pledge.

Don't forget to use the same email as on Steam Spy!

Playtime distribution:

Access restricted.

This feature is only available to users with special access rights. Sorry.

If you want to proceed, you need to register or log in first and then back Steam Spy on Patreon. Look for Indie or Pro pledge.

Don't forget to use the same email as on Steam Spy!

Playtime (2 weeks):

Access restricted.

This feature is only available to users with special access rights. Sorry.

If you want to proceed, you need to register or log in first and then back Steam Spy on Patreon. Look for Indie or Pro pledge.

Don't forget to use the same email as on Steam Spy!

User reviews:

Login required.

Please register or log in to see this information.